Durham, NC

11:16 PM EST on December 05, 2016 (GMT -0500)
Cole Mill Road | | Change Station

Elev 482 ft 36.04 °N, 78.96 °W | Updated 8 seconds ago

Light Rain
Light Rain
48.6 °F
Feels Like 49 °F
N
0.0
Wind Variable Wind from NNW
Gusts 0.0 mph

Today
High -- | Low -- °F
--% Chance of Precip.
Yesterday
High -- | Low -- °F
Precip. -- in
Pressure 30.08 in
Visibility 10.0 miles
Clouds Overcast 11000 ft
Windchill 49 °F
Dew Point 48 °F
Humidity 99%
Rainfall 0.27 in
Snow Depth Not available.
7:11 AM 5:01 PM
Waxing Crescent, 37% visible
METAR KIGX 060356Z AUTO 00000KT 10SM -RA OVC110 09/08 A3008 RMK AO2 SLP186 P0000 T00940078
Pressure 30.08 in
Visibility 10.0 miles
Clouds Overcast 11000 ft
Windchill 49 °F
Dew Point 48 °F
Humidity 99%
Rainfall 0.27 in
Snow Depth Not available.
7:11 AM 5:01 PM
Waxing Crescent, 37% visible
METAR KIGX 060356Z AUTO 00000KT 10SM -RA OVC110 09/08 A3008 RMK AO2 SLP186 P0000 T00940078

10-Day Weather Forecast

Almanac

Astronomy

Dec. 05, 2016 Rise Set
Actual Time
Civil Twilight
Nautical Twilight
Astronomical Twilight
Moon
Length of Visible Light
Length of Day
Tomorrow will be .
, % of the Moon is Illuminated

Today's Extremes

State Highs State Lows

Community

WunderPhotos

Upload Photos

1,955,917 photos uploaded!

WunderBlog® & News

Nearby

Air Quality

  Air Quality AQ Index Pollutant
Not available.

Snow Depth

Station Depth Elevation

Earthquake Activity

City Distance Mag. Time & Date
Minimum magnitude displayed is 2.5.

Coastal Water Temperatures

Place Temperature

Stations

Nearby Weather Stations

Station Location Temp. Windchill Dew Point Humidity Wind Precip. Elev Updated Type
                   

Watches & Warnings

There are currently no watches in effect.